sensor_id;sensor_type;location;lat;lon;timestamp;temperature;humidity
52267;DHT22;38223;50.940;4.034;2022-10-16T00:02:21;15.20;99.90
52267;DHT22;38223;50.940;4.034;2022-10-16T00:04:52;15.20;99.90
52267;DHT22;38223;50.940;4.034;2022-10-16T00:07:23;15.30;99.90
52267;DHT22;38223;50.940;4.034;2022-10-16T00:09:55;15.20;99.90
52267;DHT22;38223;50.940;4.034;2022-10-16T00:12:25;15.40;99.90
52267;DHT22;38223;50.940;4.034;2022-10-16T00:14:57;15.40;99.90
52267;DHT22;38223;50.940;4.034;2022-10-16T00:17:31;15.40;99.90
52267;DHT22;38223;50.940;4.034;2022-10-16T00:20:02;15.40;99.90
52267;DHT22;38223;50.940;4.034;2022-10-16T00:22:35;15.40;99.90
52267;DHT22;38223;50.940;4.034;2022-10-16T00:25:04;15.20;99.90
52267;DHT22;38223;50.940;4.034;2022-10-16T00:27:38;15.30;99.90
52267;DHT22;38223;50.940;4.034;2022-10-16T00:30:10;15.40;99.90
52267;DHT22;38223;50.940;4.034;2022-10-16T00:32:44;15.30;99.90
52267;DHT22;38223;50.940;4.034;2022-10-16T00:35:17;15.30;99.90
52267;DHT22;38223;50.940;4.034;2022-10-16T00:37:52;15.30;99.90
52267;DHT22;38223;50.940;4.034;2022-10-16T00:40:27;15.10;99.90
52267;DHT22;38223;50.940;4.034;2022-10-16T00:43:08;15.10;99.90
52267;DHT22;38223;50.940;4.034;2022-10-16T00:45:36;15.10;99.90
52267;DHT22;38223;50.940;4.034;2022-10-16T00:48:11;15.10;99.90
52267;DHT22;38223;50.940;4.034;2022-10-16T00:50:43;15.10;99.90
52267;DHT22;38223;50.940;4.034;2022-10-16T00:53:18;15.00;99.90
52267;DHT22;38223;50.940;4.034;2022-10-16T00:55:49;15.00;99.90
52267;DHT22;38223;50.940;4.034;2022-10-16T00:58:21;14.90;99.90
52267;DHT22;38223;50.940;4.034;2022-10-16T01:00:59;15.00;99.90
52267;DHT22;38223;50.940;4.034;2022-10-16T01:03:35;15.00;99.90
52267;DHT22;38223;50.940;4.034;2022-10-16T01:09:27;15.00;99.90
52267;DHT22;38223;50.940;4.034;2022-10-16T01:17:39;15.00;99.90
52267;DHT22;38223;50.940;4.034;2022-10-16T01:23:21;15.00;99.90
52267;DHT22;38223;50.940;4.034;2022-10-16T01:28:53;14.90;99.90
52267;DHT22;38223;50.940;4.034;2022-10-16T01:31:27;14.90;99.90
52267;DHT22;38223;50.940;4.034;2022-10-16T01:34:05;14.90;99.90
52267;DHT22;38223;50.940;4.034;2022-10-16T01:36:47;14.80;99.90
52267;DHT22;38223;50.940;4.034;2022-10-16T01:39:17;14.90;99.90
52267;DHT22;38223;50.940;4.034;2022-10-16T01:42:00;14.90;99.90
52267;DHT22;38223;50.940;4.034;2022-10-16T01:44:30;14.90;99.90
52267;DHT22;38223;50.940;4.034;2022-10-16T01:47:02;14.80;99.90
52267;DHT22;38223;50.940;4.034;2022-10-16T01:49:38;14.90;99.90
52267;DHT22;38223;50.940;4.034;2022-10-16T01:52:10;14.90;99.90
52267;DHT22;38223;50.940;4.034;2022-10-16T01:55:00;14.90;99.90
52267;DHT22;38223;50.940;4.034;2022-10-16T01:57:36;14.80;99.90
52267;DHT22;38223;50.940;4.034;2022-10-16T02:00:12;14.80;99.90
52267;DHT22;38223;50.940;4.034;2022-10-16T02:02:45;14.80;99.90
52267;DHT22;38223;50.940;4.034;2022-10-16T02:05:21;14.80;99.90
52267;DHT22;38223;50.940;4.034;2022-10-16T02:07:54;14.80;99.90
52267;DHT22;38223;50.940;4.034;2022-10-16T02:10:28;14.80;99.90
52267;DHT22;38223;50.940;4.034;2022-10-16T02:15:40;14.80;99.90
52267;DHT22;38223;50.940;4.034;2022-10-16T02:18:14;14.80;99.90
52267;DHT22;38223;50.940;4.034;2022-10-16T02:20:59;14.80;99.90
52267;DHT22;38223;50.940;4.034;2022-10-16T02:23:35;14.90;99.90
52267;DHT22;38223;50.940;4.034;2022-10-16T02:26:05;14.90;99.90
52267;DHT22;38223;50.940;4.034;2022-10-16T02:28:39;14.90;99.90
52267;DHT22;38223;50.940;4.034;2022-10-16T02:31:16;14.80;99.90
52267;DHT22;38223;50.940;4.034;2022-10-16T02:33:49;14.70;99.90
52267;DHT22;38223;50.940;4.034;2022-10-16T02:36:25;14.70;99.90
52267;DHT22;38223;50.940;4.034;2022-10-16T02:38:59;14.80;99.90
52267;DHT22;38223;50.940;4.034;2022-10-16T02:41:32;14.70;99.90
52267;DHT22;38223;50.940;4.034;2022-10-16T02:44:08;14.70;99.90
52267;DHT22;38223;50.940;4.034;2022-10-16T02:46:38;14.70;99.90
52267;DHT22;38223;50.940;4.034;2022-10-16T02:49:12;14.60;99.90
52267;DHT22;38223;50.940;4.034;2022-10-16T02:51:42;14.60;99.90
52267;DHT22;38223;50.940;4.034;2022-10-16T02:54:12;14.60;99.90
52267;DHT22;38223;50.940;4.034;2022-10-16T02:56:51;14.70;99.90
52267;DHT22;38223;50.940;4.034;2022-10-16T02:59:26;14.60;99.90
52267;DHT22;38223;50.940;4.034;2022-10-16T03:02:01;14.50;99.90
52267;DHT22;38223;50.940;4.034;2022-10-16T03:04:36;14.60;99.90
52267;DHT22;38223;50.940;4.034;2022-10-16T03:07:07;14.50;99.90
52267;DHT22;38223;50.940;4.034;2022-10-16T03:09:41;14.60;99.90
52267;DHT22;38223;50.940;4.034;2022-10-16T03:12:14;14.50;99.90
52267;DHT22;38223;50.940;4.034;2022-10-16T03:14:46;14.60;99.90
52267;DHT22;38223;50.940;4.034;2022-10-16T03:17:21;14.50;99.90
52267;DHT22;38223;50.940;4.034;2022-10-16T03:19:53;14.50;99.90
52267;DHT22;38223;50.940;4.034;2022-10-16T03:22:28;14.70;99.90
52267;DHT22;38223;50.940;4.034;2022-10-16T03:24:59;14.60;99.90
52267;DHT22;38223;50.940;4.034;2022-10-16T03:27:34;14.60;99.90
52267;DHT22;38223;50.940;4.034;2022-10-16T03:30:09;14.60;99.90
52267;DHT22;38223;50.940;4.034;2022-10-16T03:32:45;14.70;99.90
52267;DHT22;38223;50.940;4.034;2022-10-16T03:35:17;14.70;99.90
52267;DHT22;38223;50.940;4.034;2022-10-16T03:37:53;14.80;99.90
52267;DHT22;38223;50.940;4.034;2022-10-16T03:40:23;14.80;99.90
52267;DHT22;38223;50.940;4.034;2022-10-16T03:42:57;14.80;99.90
52267;DHT22;38223;50.940;4.034;2022-10-16T03:45:30;14.80;99.90
52267;DHT22;38223;50.940;4.034;2022-10-16T03:48:06;14.80;99.90
52267;DHT22;38223;50.940;4.034;2022-10-16T03:50:37;14.70;99.90
52267;DHT22;38223;50.940;4.034;2022-10-16T03:53:07;14.70;99.90
52267;DHT22;38223;50.940;4.034;2022-10-16T03:55:40;14.70;99.90
52267;DHT22;38223;50.940;4.034;2022-10-16T03:58:17;14.80;99.90
52267;DHT22;38223;50.940;4.034;2022-10-16T04:00:48;14.80;99.90
52267;DHT22;38223;50.940;4.034;2022-10-16T04:03:24;14.70;99.90
52267;DHT22;38223;50.940;4.034;2022-10-16T04:05:56;14.70;99.90
52267;DHT22;38223;50.940;4.034;2022-10-16T04:08:26;14.80;99.90
52267;DHT22;38223;50.940;4.034;2022-10-16T04:11:02;14.70;99.90
52267;DHT22;38223;50.940;4.034;2022-10-16T04:13:33;14.70;99.90
52267;DHT22;38223;50.940;4.034;2022-10-16T04:16:07;14.70;99.90
52267;DHT22;38223;50.940;4.034;2022-10-16T04:18:38;14.50;99.90
52267;DHT22;38223;50.940;4.034;2022-10-16T04:21:10;14.70;99.90
52267;DHT22;38223;50.940;4.034;2022-10-16T04:23:43;14.90;99.90
52267;DHT22;38223;50.940;4.034;2022-10-16T04:26:16;14.90;99.90
52267;DHT22;38223;50.940;4.034;2022-10-16T04:28:54;14.90;99.90
52267;DHT22;38223;50.940;4.034;2022-10-16T04:31:26;14.70;99.90
52267;DHT22;38223;50.940;4.034;2022-10-16T04:34:02;14.70;99.90
52267;DHT22;38223;50.940;4.034;2022-10-16T04:36:34;14.60;99.90
52267;DHT22;38223;50.940;4.034;2022-10-16T04:39:10;14.70;99.90
52267;DHT22;38223;50.940;4.034;2022-10-16T04:41:46;14.80;99.90
52267;DHT22;38223;50.940;4.034;2022-10-16T04:44:22;14.80;99.90
52267;DHT22;38223;50.940;4.034;2022-10-16T04:46:56;14.80;99.90
52267;DHT22;38223;50.940;4.034;2022-10-16T04:49:33;14.90;99.90
52267;DHT22;38223;50.940;4.034;2022-10-16T04:52:05;14.80;99.90
52267;DHT22;38223;50.940;4.034;2022-10-16T04:54:43;14.80;99.90
52267;DHT22;38223;50.940;4.034;2022-10-16T04:57:14;14.80;99.90
52267;DHT22;38223;50.940;4.034;2022-10-16T04:59:53;14.60;99.90
52267;DHT22;38223;50.940;4.034;2022-10-16T05:02:22;14.60;99.90
52267;DHT22;38223;50.940;4.034;2022-10-16T05:04:57;14.60;99.90
52267;DHT22;38223;50.940;4.034;2022-10-16T05:07:29;14.50;99.90
52267;DHT22;38223;50.940;4.034;2022-10-16T05:10:04;14.40;99.90
52267;DHT22;38223;50.940;4.034;2022-10-16T05:12:35;14.60;99.90
52267;DHT22;38223;50.940;4.034;2022-10-16T05:15:10;14.60;99.90
52267;DHT22;38223;50.940;4.034;2022-10-16T05:17:38;14.50;99.90
52267;DHT22;38223;50.940;4.034;2022-10-16T05:20:18;14.60;99.90
52267;DHT22;38223;50.940;4.034;2022-10-16T05:22:49;14.60;99.90
52267;DHT22;38223;50.940;4.034;2022-10-16T05:25:24;14.50;99.90
52267;DHT22;38223;50.940;4.034;2022-10-16T05:27:54;14.40;99.90
52267;DHT22;38223;50.940;4.034;2022-10-16T05:30:27;14.30;99.90
52267;DHT22;38223;50.940;4.034;2022-10-16T05:33:00;14.30;99.90
52267;DHT22;38223;50.940;4.034;2022-10-16T05:35:35;14.40;99.90
52267;DHT22;38223;50.940;4.034;2022-10-16T05:38:08;14.40;99.90
52267;DHT22;38223;50.940;4.034;2022-10-16T05:40:50;14.40;99.90
52267;DHT22;38223;50.940;4.034;2022-10-16T05:43:15;14.40;99.90
52267;DHT22;38223;50.940;4.034;2022-10-16T05:45:58;14.20;99.90
52267;DHT22;38223;50.940;4.034;2022-10-16T05:48:29;14.30;99.90
52267;DHT22;38223;50.940;4.034;2022-10-16T05:51:10;14.40;99.90
52267;DHT22;38223;50.940;4.034;2022-10-16T05:53:44;14.50;99.90
52267;DHT22;38223;50.940;4.034;2022-10-16T05:56:18;14.40;99.90
52267;DHT22;38223;50.940;4.034;2022-10-16T05:58:47;14.50;99.90
52267;DHT22;38223;50.940;4.034;2022-10-16T06:01:24;14.50;99.90
52267;DHT22;38223;50.940;4.034;2022-10-16T06:03:55;14.50;99.90
52267;DHT22;38223;50.940;4.034;2022-10-16T06:06:31;14.80;99.90
52267;DHT22;38223;50.940;4.034;2022-10-16T06:09:02;14.80;99.90
52267;DHT22;38223;50.940;4.034;2022-10-16T06:11:35;14.80;99.90
52267;DHT22;38223;50.940;4.034;2022-10-16T06:14:05;14.80;99.90
52267;DHT22;38223;50.940;4.034;2022-10-16T06:16:37;14.80;99.90
52267;DHT22;38223;50.940;4.034;2022-10-16T06:19:08;14.90;99.90
52267;DHT22;38223;50.940;4.034;2022-10-16T06:21:38;14.70;99.90
52267;DHT22;38223;50.940;4.034;2022-10-16T06:24:12;14.80;99.90
52267;DHT22;38223;50.940;4.034;2022-10-16T06:26:42;14.80;99.90
52267;DHT22;38223;50.940;4.034;2022-10-16T06:29:20;14.90;99.90
52267;DHT22;38223;50.940;4.034;2022-10-16T06:31:49;14.90;99.90
52267;DHT22;38223;50.940;4.034;2022-10-16T06:37:09;14.90;99.90
52267;DHT22;38223;50.940;4.034;2022-10-16T06:39:45;14.80;99.90
52267;DHT22;38223;50.940;4.034;2022-10-16T06:42:14;14.80;99.90
52267;DHT22;38223;50.940;4.034;2022-10-16T06:44:50;14.80;99.90
52267;DHT22;38223;50.940;4.034;2022-10-16T06:47:24;14.80;99.90
52267;DHT22;38223;50.940;4.034;2022-10-16T06:49:58;14.70;99.90
52267;DHT22;38223;50.940;4.034;2022-10-16T06:52:30;14.70;99.90
52267;DHT22;38223;50.940;4.034;2022-10-16T06:55:04;14.60;99.90
52267;DHT22;38223;50.940;4.034;2022-10-16T06:57:36;14.60;99.90
52267;DHT22;38223;50.940;4.034;2022-10-16T07:00:10;14.60;99.90
52267;DHT22;38223;50.940;4.034;2022-10-16T07:02:45;14.50;99.90
52267;DHT22;38223;50.940;4.034;2022-10-16T07:05:16;14.60;99.90
52267;DHT22;38223;50.940;4.034;2022-10-16T07:07:51;14.50;99.90
52267;DHT22;38223;50.940;4.034;2022-10-16T07:10:25;14.60;99.90
52267;DHT22;38223;50.940;4.034;2022-10-16T07:12:57;14.60;99.90
52267;DHT22;38223;50.940;4.034;2022-10-16T07:15:31;14.60;99.90
52267;DHT22;38223;50.940;4.034;2022-10-16T07:18:00;14.70;99.90
52267;DHT22;38223;50.940;4.034;2022-10-16T07:20:35;14.80;99.90
52267;DHT22;38223;50.940;4.034;2022-10-16T07:23:14;14.70;99.90
52267;DHT22;38223;50.940;4.034;2022-10-16T07:25:53;14.80;99.90
52267;DHT22;38223;50.940;4.034;2022-10-16T07:28:25;14.80;99.90
52267;DHT22;38223;50.940;4.034;2022-10-16T07:31:02;14.90;99.90
52267;DHT22;38223;50.940;4.034;2022-10-16T07:33:34;14.90;99.90
52267;DHT22;38223;50.940;4.034;2022-10-16T07:36:04;15.00;99.90
52267;DHT22;38223;50.940;4.034;2022-10-16T07:38:36;15.00;99.90
52267;DHT22;38223;50.940;4.034;2022-10-16T07:41:15;15.10;99.90
52267;DHT22;38223;50.940;4.034;2022-10-16T07:43:51;15.30;99.90
52267;DHT22;38223;50.940;4.034;2022-10-16T07:46:26;15.40;99.90
52267;DHT22;38223;50.940;4.034;2022-10-16T07:49:01;15.30;99.90
52267;DHT22;38223;50.940;4.034;2022-10-16T07:51:54;15.30;99.90
52267;DHT22;38223;50.940;4.034;2022-10-16T07:54:25;15.40;99.90
52267;DHT22;38223;50.940;4.034;2022-10-16T07:57:02;15.40;99.90
52267;DHT22;38223;50.940;4.034;2022-10-16T07:59:32;15.40;99.90
52267;DHT22;38223;50.940;4.034;2022-10-16T08:02:06;15.50;99.90
52267;DHT22;38223;50.940;4.034;2022-10-16T08:04:41;15.60;99.90
52267;DHT22;38223;50.940;4.034;2022-10-16T08:07:10;15.60;99.90
52267;DHT22;38223;50.940;4.034;2022-10-16T08:09:48;15.50;99.90
52267;DHT22;38223;50.940;4.034;2022-10-16T08:12:17;15.50;99.90
52267;DHT22;38223;50.940;4.034;2022-10-16T08:14:49;15.50;99.90
52267;DHT22;38223;50.940;4.034;2022-10-16T08:17:19;15.40;99.90
52267;DHT22;38223;50.940;4.034;2022-10-16T08:19:53;15.40;99.90
52267;DHT22;38223;50.940;4.034;2022-10-16T08:22:27;15.50;99.90
52267;DHT22;38223;50.940;4.034;2022-10-16T08:24:57;15.60;99.90
52267;DHT22;38223;50.940;4.034;2022-10-16T08:27:32;15.70;99.90
52267;DHT22;38223;50.940;4.034;2022-10-16T08:30:03;15.70;99.90
52267;DHT22;38223;50.940;4.034;2022-10-16T08:32:38;15.80;99.90
52267;DHT22;38223;50.940;4.034;2022-10-16T08:35:11;15.90;99.90
52267;DHT22;38223;50.940;4.034;2022-10-16T08:37:43;15.90;99.90
52267;DHT22;38223;50.940;4.034;2022-10-16T08:40:23;16.00;99.90
52267;DHT22;38223;50.940;4.034;2022-10-16T08:48:40;16.20;99.90
52267;DHT22;38223;50.940;4.034;2022-10-16T08:51:19;16.10;99.90
52267;DHT22;38223;50.940;4.034;2022-10-16T08:53:56;15.90;99.90
52267;DHT22;38223;50.940;4.034;2022-10-16T08:56:28;16.00;99.90
52267;DHT22;38223;50.940;4.034;2022-10-16T08:59:03;16.10;99.90
52267;DHT22;38223;50.940;4.034;2022-10-16T09:01:49;16.10;99.90
52267;DHT22;38223;50.940;4.034;2022-10-16T09:07:24;16.20;99.90
52267;DHT22;38223;50.940;4.034;2022-10-16T09:12:37;16.30;99.90
52267;DHT22;38223;50.940;4.034;2022-10-16T09:15:29;16.20;99.90
52267;DHT22;38223;50.940;4.034;2022-10-16T09:18:04;16.30;99.90
52267;DHT22;38223;50.940;4.034;2022-10-16T09:23:28;16.30;99.90
52267;DHT22;38223;50.940;4.034;2022-10-16T09:26:04;16.50;99.90
52267;DHT22;38223;50.940;4.034;2022-10-16T09:28:36;16.50;99.90
52267;DHT22;38223;50.940;4.034;2022-10-16T09:31:20;16.50;99.90
52267;DHT22;38223;50.940;4.034;2022-10-16T09:33:52;16.50;99.90
52267;DHT22;38223;50.940;4.034;2022-10-16T09:36:25;16.70;99.90
52267;DHT22;38223;50.940;4.034;2022-10-16T09:39:10;16.70;99.90
52267;DHT22;38223;50.940;4.034;2022-10-16T09:41:46;16.90;99.90
52267;DHT22;38223;50.940;4.034;2022-10-16T09:44:23;17.00;99.90
52267;DHT22;38223;50.940;4.034;2022-10-16T09:47:12;17.00;99.90
52267;DHT22;38223;50.940;4.034;2022-10-16T09:49:50;17.10;99.90
52267;DHT22;38223;50.940;4.034;2022-10-16T09:52:18;17.10;99.90
52267;DHT22;38223;50.940;4.034;2022-10-16T09:54:55;17.10;99.90
52267;DHT22;38223;50.940;4.034;2022-10-16T09:57:31;17.10;99.90
52267;DHT22;38223;50.940;4.034;2022-10-16T10:00:00;17.10;99.90
52267;DHT22;38223;50.940;4.034;2022-10-16T10:02:37;17.30;99.90
52267;DHT22;38223;50.940;4.034;2022-10-16T10:05:21;17.50;99.90
52267;DHT22;38223;50.940;4.034;2022-10-16T10:07:59;17.60;99.90
52267;DHT22;38223;50.940;4.034;2022-10-16T10:10:39;17.60;99.90
52267;DHT22;38223;50.940;4.034;2022-10-16T10:13:28;17.60;99.90
52267;DHT22;38223;50.940;4.034;2022-10-16T10:15:42;17.50;99.90
52267;DHT22;38223;50.940;4.034;2022-10-16T10:18:22;17.40;99.90
52267;DHT22;38223;50.940;4.034;2022-10-16T10:21:01;17.70;99.90
52267;DHT22;38223;50.940;4.034;2022-10-16T10:23:35;17.80;99.90
52267;DHT22;38223;50.940;4.034;2022-10-16T10:31:43;17.90;99.90
52267;DHT22;38223;50.940;4.034;2022-10-16T10:37:04;17.90;99.90
52267;DHT22;38223;50.940;4.034;2022-10-16T10:39:38;18.10;99.90
52267;DHT22;38223;50.940;4.034;2022-10-16T10:42:36;18.00;99.90
52267;DHT22;38223;50.940;4.034;2022-10-16T10:45:26;18.00;99.90
52267;DHT22;38223;50.940;4.034;2022-10-16T10:51:01;17.90;99.90
52267;DHT22;38223;50.940;4.034;2022-10-16T10:53:53;17.70;99.90
52267;DHT22;38223;50.940;4.034;2022-10-16T10:56:40;17.90;99.90
52267;DHT22;38223;50.940;4.034;2022-10-16T11:02:23;17.70;99.90
52267;DHT22;38223;50.940;4.034;2022-10-16T11:07:47;18.00;99.90
52267;DHT22;38223;50.940;4.034;2022-10-16T11:10:19;18.20;99.90
52267;DHT22;38223;50.940;4.034;2022-10-16T11:12:51;18.30;99.90
52267;DHT22;38223;50.940;4.034;2022-10-16T11:15:31;18.30;99.90
52267;DHT22;38223;50.940;4.034;2022-10-16T11:20:42;18.40;99.90
52267;DHT22;38223;50.940;4.034;2022-10-16T11:23:40;18.30;99.90
52267;DHT22;38223;50.940;4.034;2022-10-16T11:26:14;18.40;99.90
52267;DHT22;38223;50.940;4.034;2022-10-16T11:28:52;18.60;99.90
52267;DHT22;38223;50.940;4.034;2022-10-16T11:31:34;18.70;99.90
52267;DHT22;38223;50.940;4.034;2022-10-16T11:34:28;18.90;99.90
52267;DHT22;38223;50.940;4.034;2022-10-16T11:37:14;18.80;99.90
52267;DHT22;38223;50.940;4.034;2022-10-16T11:39:42;18.70;99.90
52267;DHT22;38223;50.940;4.034;2022-10-16T11:42:22;18.80;99.90
52267;DHT22;38223;50.940;4.034;2022-10-16T11:45:26;18.90;99.90
52267;DHT22;38223;50.940;4.034;2022-10-16T11:48:23;19.10;99.90
52267;DHT22;38223;50.940;4.034;2022-10-16T11:50:57;19.30;99.90
52267;DHT22;38223;50.940;4.034;2022-10-16T11:54:02;19.20;99.90
52267;DHT22;38223;50.940;4.034;2022-10-16T11:56:34;19.30;99.90
52267;DHT22;38223;50.940;4.034;2022-10-16T11:59:06;19.50;99.90
52267;DHT22;38223;50.940;4.034;2022-10-16T12:01:50;19.60;99.90
52267;DHT22;38223;50.940;4.034;2022-10-16T12:04:42;19.60;99.90
52267;DHT22;38223;50.940;4.034;2022-10-16T12:07:19;19.70;99.90
52267;DHT22;38223;50.940;4.034;2022-10-16T12:09:51;19.40;99.90
52267;DHT22;38223;50.940;4.034;2022-10-16T12:12:37;19.50;99.90
52267;DHT22;38223;50.940;4.034;2022-10-16T12:17:39;19.60;99.90
52267;DHT22;38223;50.940;4.034;2022-10-16T12:20:21;19.50;99.90
52267;DHT22;38223;50.940;4.034;2022-10-16T12:22:59;19.40;99.90
52267;DHT22;38223;50.940;4.034;2022-10-16T12:25:37;19.70;99.90
52267;DHT22;38223;50.940;4.034;2022-10-16T12:28:25;19.80;99.90
52267;DHT22;38223;50.940;4.034;2022-10-16T12:31:06;19.70;99.90
52267;DHT22;38223;50.940;4.034;2022-10-16T12:34:01;19.50;99.90
52267;DHT22;38223;50.940;4.034;2022-10-16T12:36:39;19.70;99.90
52267;DHT22;38223;50.940;4.034;2022-10-16T12:38:51;19.70;99.90
52267;DHT22;38223;50.940;4.034;2022-10-16T12:41:31;19.60;99.90
52267;DHT22;38223;50.940;4.034;2022-10-16T12:44:01;19.80;99.90
52267;DHT22;38223;50.940;4.034;2022-10-16T12:46:38;20.10;99.90
52267;DHT22;38223;50.940;4.034;2022-10-16T12:49:56;20.00;99.90
52267;DHT22;38223;50.940;4.034;2022-10-16T12:51:51;20.20;99.90
52267;DHT22;38223;50.940;4.034;2022-10-16T12:57:35;19.70;99.90
52267;DHT22;38223;50.940;4.034;2022-10-16T13:05:32;19.60;99.90
52267;DHT22;38223;50.940;4.034;2022-10-16T13:11:15;19.70;99.90
52267;DHT22;38223;50.940;4.034;2022-10-16T13:13:54;20.00;99.90
52267;DHT22;38223;50.940;4.034;2022-10-16T13:19:50;19.90;99.90
52267;DHT22;38223;50.940;4.034;2022-10-16T13:22:48;19.70;99.90
52267;DHT22;38223;50.940;4.034;2022-10-16T13:28:05;20.00;99.90
52267;DHT22;38223;50.940;4.034;2022-10-16T13:30:44;19.80;99.90
52267;DHT22;38223;50.940;4.034;2022-10-16T13:33:30;19.90;99.90
52267;DHT22;38223;50.940;4.034;2022-10-16T13:36:01;19.90;99.90
52267;DHT22;38223;50.940;4.034;2022-10-16T13:38:35;20.10;99.90
52267;DHT22;38223;50.940;4.034;2022-10-16T13:41:17;19.90;99.90
52267;DHT22;38223;50.940;4.034;2022-10-16T13:43:51;20.10;99.90
52267;DHT22;38223;50.940;4.034;2022-10-16T13:46:25;20.00;99.90
52267;DHT22;38223;50.940;4.034;2022-10-16T13:49:14;20.00;99.90
52267;DHT22;38223;50.940;4.034;2022-10-16T13:51:59;20.00;99.90
52267;DHT22;38223;50.940;4.034;2022-10-16T13:54:31;19.80;99.90
52267;DHT22;38223;50.940;4.034;2022-10-16T13:57:08;19.60;99.90
52267;DHT22;38223;50.940;4.034;2022-10-16T13:59:39;19.50;99.90
52267;DHT22;38223;50.940;4.034;2022-10-16T14:02:34;19.50;99.90
52267;DHT22;38223;50.940;4.034;2022-10-16T14:05:08;19.80;99.90
52267;DHT22;38223;50.940;4.034;2022-10-16T14:07:42;20.00;99.90
52267;DHT22;38223;50.940;4.034;2022-10-16T14:10:30;19.90;99.90
52267;DHT22;38223;50.940;4.034;2022-10-16T14:13:05;19.90;99.90
52267;DHT22;38223;50.940;4.034;2022-10-16T14:15:45;19.70;99.90
52267;DHT22;38223;50.940;4.034;2022-10-16T14:18:15;19.70;99.90
52267;DHT22;38223;50.940;4.034;2022-10-16T14:20:48;19.80;99.90
52267;DHT22;38223;50.940;4.034;2022-10-16T14:23:28;20.10;99.90
52267;DHT22;38223;50.940;4.034;2022-10-16T14:26:16;20.10;99.90
52267;DHT22;38223;50.940;4.034;2022-10-16T14:28:48;20.10;99.90
52267;DHT22;38223;50.940;4.034;2022-10-16T14:31:31;20.10;99.90
52267;DHT22;38223;50.940;4.034;2022-10-16T14:34:01;19.90;99.90
52267;DHT22;38223;50.940;4.034;2022-10-16T14:36:35;19.60;99.90
52267;DHT22;38223;50.940;4.034;2022-10-16T14:39:17;19.60;99.90
52267;DHT22;38223;50.940;4.034;2022-10-16T14:41:50;19.60;99.90
52267;DHT22;38223;50.940;4.034;2022-10-16T14:44:26;19.70;99.90
52267;DHT22;38223;50.940;4.034;2022-10-16T14:46:54;19.80;99.90
52267;DHT22;38223;50.940;4.034;2022-10-16T14:49:30;19.70;99.90
52267;DHT22;38223;50.940;4.034;2022-10-16T14:51:59;19.80;99.90
52267;DHT22;38223;50.940;4.034;2022-10-16T14:54:35;19.80;99.90
52267;DHT22;38223;50.940;4.034;2022-10-16T14:57:05;19.90;99.90
52267;DHT22;38223;50.940;4.034;2022-10-16T14:59:41;19.60;99.90
52267;DHT22;38223;50.940;4.034;2022-10-16T15:02:34;19.10;99.90
52267;DHT22;38223;50.940;4.034;2022-10-16T15:05:25;18.90;99.90
52267;DHT22;38223;50.940;4.034;2022-10-16T15:08:00;19.00;99.90
52267;DHT22;38223;50.940;4.034;2022-10-16T15:10:31;19.00;99.90
52267;DHT22;38223;50.940;4.034;2022-10-16T15:13:08;18.90;99.90
52267;DHT22;38223;50.940;4.034;2022-10-16T15:15:47;19.20;99.90
52267;DHT22;38223;50.940;4.034;2022-10-16T15:18:19;19.10;99.90
52267;DHT22;38223;50.940;4.034;2022-10-16T15:20:52;18.80;99.90
52267;DHT22;38223;50.940;4.034;2022-10-16T15:23:24;19.10;99.90
52267;DHT22;38223;50.940;4.034;2022-10-16T15:25:59;19.60;99.90
52267;DHT22;38223;50.940;4.034;2022-10-16T15:28:29;19.30;99.90
52267;DHT22;38223;50.940;4.034;2022-10-16T15:31:03;18.90;99.90
52267;DHT22;38223;50.940;4.034;2022-10-16T15:33:35;19.00;99.90
52267;DHT22;38223;50.940;4.034;2022-10-16T15:36:06;19.00;99.90
52267;DHT22;38223;50.940;4.034;2022-10-16T15:38:36;19.30;99.90
52267;DHT22;38223;50.940;4.034;2022-10-16T15:41:13;19.50;99.90
52267;DHT22;38223;50.940;4.034;2022-10-16T15:43:42;19.70;99.90
52267;DHT22;38223;50.940;4.034;2022-10-16T15:46:17;19.80;99.90
52267;DHT22;38223;50.940;4.034;2022-10-16T15:48:44;19.70;99.90
52267;DHT22;38223;50.940;4.034;2022-10-16T15:51:20;19.70;99.90
52267;DHT22;38223;50.940;4.034;2022-10-16T15:53:49;19.70;99.90
52267;DHT22;38223;50.940;4.034;2022-10-16T15:56:25;20.00;99.90
52267;DHT22;38223;50.940;4.034;2022-10-16T15:58:54;19.90;99.90
52267;DHT22;38223;50.940;4.034;2022-10-16T16:01:30;19.90;99.90
52267;DHT22;38223;50.940;4.034;2022-10-16T16:03:59;19.70;99.90
52267;DHT22;38223;50.940;4.034;2022-10-16T16:06:36;19.60;99.90
52267;DHT22;38223;50.940;4.034;2022-10-16T16:09:06;19.30;99.90
52267;DHT22;38223;50.940;4.034;2022-10-16T16:11:37;19.10;99.90
52267;DHT22;38223;50.940;4.034;2022-10-16T16:14:10;18.80;99.90
52267;DHT22;38223;50.940;4.034;2022-10-16T16:16:44;18.70;99.90
52267;DHT22;38223;50.940;4.034;2022-10-16T16:19:16;18.80;99.90
52267;DHT22;38223;50.940;4.034;2022-10-16T16:21:46;19.00;99.90
52267;DHT22;38223;50.940;4.034;2022-10-16T16:24:17;19.20;99.90
52267;DHT22;38223;50.940;4.034;2022-10-16T16:26:49;19.20;99.90
52267;DHT22;38223;50.940;4.034;2022-10-16T16:29:19;19.50;99.90
52267;DHT22;38223;50.940;4.034;2022-10-16T16:31:51;19.40;99.90
52267;DHT22;38223;50.940;4.034;2022-10-16T16:34:21;19.30;99.90
52267;DHT22;38223;50.940;4.034;2022-10-16T16:36:56;19.20;99.90
52267;DHT22;38223;50.940;4.034;2022-10-16T16:39:30;19.10;99.90
52267;DHT22;38223;50.940;4.034;2022-10-16T16:41:59;19.40;99.90
52267;DHT22;38223;50.940;4.034;2022-10-16T16:44:36;19.10;99.90
52267;DHT22;38223;50.940;4.034;2022-10-16T16:47:09;18.90;99.90
52267;DHT22;38223;50.940;4.034;2022-10-16T16:49:40;18.90;99.90
52267;DHT22;38223;50.940;4.034;2022-10-16T16:52:14;19.20;99.90
52267;DHT22;38223;50.940;4.034;2022-10-16T16:54:47;19.50;99.90
52267;DHT22;38223;50.940;4.034;2022-10-16T16:57:20;19.80;99.90
52267;DHT22;38223;50.940;4.034;2022-10-16T16:59:55;19.80;99.90
52267;DHT22;38223;50.940;4.034;2022-10-16T17:02:25;19.80;99.90
52267;DHT22;38223;50.940;4.034;2022-10-16T17:05:01;19.60;99.90
52267;DHT22;38223;50.940;4.034;2022-10-16T17:07:36;19.40;99.90
52267;DHT22;38223;50.940;4.034;2022-10-16T17:10:12;19.40;99.90
52267;DHT22;38223;50.940;4.034;2022-10-16T17:12:40;19.50;99.90
52267;DHT22;38223;50.940;4.034;2022-10-16T17:15:09;19.50;99.90
52267;DHT22;38223;50.940;4.034;2022-10-16T17:17:43;19.50;99.90
52267;DHT22;38223;50.940;4.034;2022-10-16T17:20:20;19.50;99.90
52267;DHT22;38223;50.940;4.034;2022-10-16T17:22:52;19.40;99.90
52267;DHT22;38223;50.940;4.034;2022-10-16T17:25:27;19.40;99.90
52267;DHT22;38223;50.940;4.034;2022-10-16T17:27:58;19.30;99.90
52267;DHT22;38223;50.940;4.034;2022-10-16T17:30:34;19.00;99.90
52267;DHT22;38223;50.940;4.034;2022-10-16T17:33:07;18.60;99.90
52267;DHT22;38223;50.940;4.034;2022-10-16T17:35:41;18.50;99.90